sensor_id;sensor_type;location;lat;lon;timestamp;pressure;altitude;pressure_sealevel;temperature;humidity
40908;BME280;51055;59.436;24.778;2022-10-18T00:00:59;101537.09;;;9.78;100.00
40908;BME280;51055;59.436;24.778;2022-10-18T00:03:26;101533.81;;;9.75;100.00
40908;BME280;51055;59.436;24.778;2022-10-18T00:05:55;101531.06;;;9.76;100.00
40908;BME280;51055;59.436;24.778;2022-10-18T00:08:22;101524.16;;;9.74;100.00
40908;BME280;51055;59.436;24.778;2022-10-18T00:10:50;101522.75;;;9.68;100.00
40908;BME280;51055;59.436;24.778;2022-10-18T00:13:19;101515.16;;;9.62;100.00
40908;BME280;51055;59.436;24.778;2022-10-18T00:15:50;101508.19;;;9.61;100.00
40908;BME280;51055;59.436;24.778;2022-10-18T00:18:19;101499.66;;;9.56;100.00
40908;BME280;51055;59.436;24.778;2022-10-18T00:21:00;101498.00;;;9.55;100.00
40908;BME280;51055;59.436;24.778;2022-10-18T00:23:30;101497.53;;;9.49;100.00
40908;BME280;51055;59.436;24.778;2022-10-18T00:26:00;101490.22;;;9.52;100.00
40908;BME280;51055;59.436;24.778;2022-10-18T00:28:28;101480.66;;;9.50;100.00
40908;BME280;51055;59.436;24.778;2022-10-18T00:30:56;101489.56;;;9.49;100.00
40908;BME280;51055;59.436;24.778;2022-10-18T00:33:24;101477.16;;;9.49;100.00
40908;BME280;51055;59.436;24.778;2022-10-18T00:35:51;101474.63;;;9.48;100.00
40908;BME280;51055;59.436;24.778;2022-10-18T00:38:19;101462.13;;;9.50;100.00
40908;BME280;51055;59.436;24.778;2022-10-18T00:40:46;101458.63;;;9.49;100.00
40908;BME280;51055;59.436;24.778;2022-10-18T00:43:14;101456.38;;;9.43;100.00
40908;BME280;51055;59.436;24.778;2022-10-18T00:45:43;101451.06;;;9.43;100.00
40908;BME280;51055;59.436;24.778;2022-10-18T00:48:12;101443.44;;;9.38;100.00
40908;BME280;51055;59.436;24.778;2022-10-18T00:50:41;101445.97;;;9.40;100.00
40908;BME280;51055;59.436;24.778;2022-10-18T00:53:15;101435.50;;;9.38;100.00
40908;BME280;51055;59.436;24.778;2022-10-18T00:55:44;101430.00;;;9.41;100.00
40908;BME280;51055;59.436;24.778;2022-10-18T00:58:14;101412.13;;;9.45;100.00
40908;BME280;51055;59.436;24.778;2022-10-18T01:00:42;101408.69;;;9.43;100.00
40908;BME280;51055;59.436;24.778;2022-10-18T01:03:10;101404.56;;;9.39;100.00
40908;BME280;51055;59.436;24.778;2022-10-18T01:05:42;101399.16;;;9.40;100.00
40908;BME280;51055;59.436;24.778;2022-10-18T01:08:37;101399.09;;;9.42;100.00
40908;BME280;51055;59.436;24.778;2022-10-18T01:14:49;101374.69;;;9.23;100.00
40908;BME280;51055;59.436;24.778;2022-10-18T01:18:02;101373.28;;;9.31;100.00
40908;BME280;51055;59.436;24.778;2022-10-18T01:26:50;101352.03;;;9.19;100.00
40908;BME280;51055;59.436;24.778;2022-10-18T01:32:19;101340.50;;;9.20;100.00
40908;BME280;51055;59.436;24.778;2022-10-18T01:34:51;101333.06;;;9.12;100.00
40908;BME280;51055;59.436;24.778;2022-10-18T01:37:20;101331.34;;;9.11;100.00
40908;BME280;51055;59.436;24.778;2022-10-18T01:39:53;101331.28;;;8.99;100.00
40908;BME280;51055;59.436;24.778;2022-10-18T01:42:22;101324.28;;;8.98;100.00
40908;BME280;51055;59.436;24.778;2022-10-18T01:44:51;101319.84;;;8.98;100.00
40908;BME280;51055;59.436;24.778;2022-10-18T01:47:20;101319.66;;;9.01;100.00
40908;BME280;51055;59.436;24.778;2022-10-18T01:49:48;101321.56;;;8.99;100.00
40908;BME280;51055;59.436;24.778;2022-10-18T01:52:15;101307.47;;;8.99;100.00
40908;BME280;51055;59.436;24.778;2022-10-18T01:54:47;101297.94;;;8.96;100.00
40908;BME280;51055;59.436;24.778;2022-10-18T02:00:36;101296.31;;;8.94;100.00
40908;BME280;51055;59.436;24.778;2022-10-18T02:11:01;101287.63;;;9.06;100.00
40908;BME280;51055;59.436;24.778;2022-10-18T02:13:33;101285.06;;;9.04;100.00
40908;BME280;51055;59.436;24.778;2022-10-18T02:16:09;101275.25;;;9.06;100.00
40908;BME280;51055;59.436;24.778;2022-10-18T02:18:42;101274.47;;;9.04;100.00
40908;BME280;51055;59.436;24.778;2022-10-18T02:21:14;101261.34;;;9.03;100.00
40908;BME280;51055;59.436;24.778;2022-10-18T02:23:47;101248.00;;;9.04;100.00
40908;BME280;51055;59.436;24.778;2022-10-18T02:26:15;101255.53;;;9.10;100.00
40908;BME280;51055;59.436;24.778;2022-10-18T02:28:43;101249.03;;;9.16;100.00
40908;BME280;51055;59.436;24.778;2022-10-18T02:36:37;101247.31;;;9.15;100.00
40908;BME280;51055;59.436;24.778;2022-10-18T02:39:15;101250.38;;;9.09;100.00
40908;BME280;51055;59.436;24.778;2022-10-18T02:41:43;101240.19;;;9.03;100.00
40908;BME280;51055;59.436;24.778;2022-10-18T02:44:10;101235.91;;;9.00;100.00
40908;BME280;51055;59.436;24.778;2022-10-18T02:46:39;101225.91;;;9.05;100.00
40908;BME280;51055;59.436;24.778;2022-10-18T02:49:06;101222.59;;;9.02;100.00
40908;BME280;51055;59.436;24.778;2022-10-18T02:51:34;101222.69;;;9.00;100.00
40908;BME280;51055;59.436;24.778;2022-10-18T02:54:02;101230.94;;;8.96;100.00
40908;BME280;51055;59.436;24.778;2022-10-18T02:56:30;101224.59;;;8.98;100.00
40908;BME280;51055;59.436;24.778;2022-10-18T02:58:58;101220.16;;;8.99;100.00
40908;BME280;51055;59.436;24.778;2022-10-18T03:01:25;101221.22;;;8.96;100.00
40908;BME280;51055;59.436;24.778;2022-10-18T03:03:53;101218.44;;;8.98;100.00
40908;BME280;51055;59.436;24.778;2022-10-18T03:06:21;101214.94;;;8.97;100.00
40908;BME280;51055;59.436;24.778;2022-10-18T03:08:48;101207.66;;;9.01;100.00
40908;BME280;51055;59.436;24.778;2022-10-18T03:11:16;101199.00;;;8.99;100.00
40908;BME280;51055;59.436;24.778;2022-10-18T03:13:44;101196.34;;;8.99;100.00
40908;BME280;51055;59.436;24.778;2022-10-18T03:16:11;101196.75;;;8.93;100.00
40908;BME280;51055;59.436;24.778;2022-10-18T03:18:39;101200.13;;;8.95;100.00
40908;BME280;51055;59.436;24.778;2022-10-18T03:21:07;101196.75;;;8.93;100.00
40908;BME280;51055;59.436;24.778;2022-10-18T03:23:35;101186.91;;;8.95;100.00
40908;BME280;51055;59.436;24.778;2022-10-18T03:26:03;101188.59;;;8.96;100.00
40908;BME280;51055;59.436;24.778;2022-10-18T03:28:30;101180.09;;;8.90;100.00
40908;BME280;51055;59.436;24.778;2022-10-18T03:30:59;101170.78;;;8.85;100.00
40908;BME280;51055;59.436;24.778;2022-10-18T03:33:29;101167.47;;;8.81;100.00
40908;BME280;51055;59.436;24.778;2022-10-18T03:35:57;101169.06;;;8.84;100.00
40908;BME280;51055;59.436;24.778;2022-10-18T03:38:25;101161.06;;;8.85;100.00
40908;BME280;51055;59.436;24.778;2022-10-18T03:40:52;101150.28;;;8.88;100.00
40908;BME280;51055;59.436;24.778;2022-10-18T03:43:20;101145.19;;;8.85;100.00
40908;BME280;51055;59.436;24.778;2022-10-18T03:45:48;101161.13;;;8.84;100.00
40908;BME280;51055;59.436;24.778;2022-10-18T03:48:16;101161.25;;;8.82;100.00
40908;BME280;51055;59.436;24.778;2022-10-18T03:50:43;101157.47;;;8.86;100.00
40908;BME280;51055;59.436;24.778;2022-10-18T03:53:11;101167.47;;;8.81;100.00
40908;BME280;51055;59.436;24.778;2022-10-18T03:55:39;101165.50;;;8.85;100.00
40908;BME280;51055;59.436;24.778;2022-10-18T03:58:06;101156.16;;;8.79;100.00
40908;BME280;51055;59.436;24.778;2022-10-18T04:00:34;101155.53;;;8.76;100.00
40908;BME280;51055;59.436;24.778;2022-10-18T04:03:02;101151.28;;;8.73;100.00
40908;BME280;51055;59.436;24.778;2022-10-18T04:05:30;101152.31;;;8.71;100.00
40908;BME280;51055;59.436;24.778;2022-10-18T04:07:58;101155.81;;;8.71;100.00
40908;BME280;51055;59.436;24.778;2022-10-18T04:10:28;101166.19;;;8.74;100.00
40908;BME280;51055;59.436;24.778;2022-10-18T04:12:56;101160.28;;;8.83;100.00
40908;BME280;51055;59.436;24.778;2022-10-18T04:15:23;101162.47;;;8.77;100.00
40908;BME280;51055;59.436;24.778;2022-10-18T04:17:51;101179.19;;;8.77;100.00
40908;BME280;51055;59.436;24.778;2022-10-18T04:20:18;101189.22;;;8.86;100.00
40908;BME280;51055;59.436;24.778;2022-10-18T04:22:47;101184.00;;;8.85;100.00
40908;BME280;51055;59.436;24.778;2022-10-18T04:25:15;101182.00;;;8.88;100.00
40908;BME280;51055;59.436;24.778;2022-10-18T04:27:44;101188.34;;;8.86;100.00
40908;BME280;51055;59.436;24.778;2022-10-18T04:30:11;101201.28;;;8.90;100.00
40908;BME280;51055;59.436;24.778;2022-10-18T04:32:40;101196.94;;;8.89;100.00
40908;BME280;51055;59.436;24.778;2022-10-18T04:35:08;101189.22;;;8.86;100.00
40908;BME280;51055;59.436;24.778;2022-10-18T04:37:36;101194.31;;;8.89;100.00
40908;BME280;51055;59.436;24.778;2022-10-18T04:40:07;101200.53;;;8.88;100.00
40908;BME280;51055;59.436;24.778;2022-10-18T04:42:36;101214.41;;;8.92;100.00
40908;BME280;51055;59.436;24.778;2022-10-18T04:45:04;101209.22;;;8.90;100.00
40908;BME280;51055;59.436;24.778;2022-10-18T04:47:31;101205.16;;;8.85;100.00
40908;BME280;51055;59.436;24.778;2022-10-18T04:50:01;101196.97;;;8.75;100.00
40908;BME280;51055;59.436;24.778;2022-10-18T04:52:28;101188.31;;;8.73;100.00
40908;BME280;51055;59.436;24.778;2022-10-18T04:54:56;101159.22;;;8.73;100.00
40908;BME280;51055;59.436;24.778;2022-10-18T04:57:24;101153.34;;;8.68;100.00
40908;BME280;51055;59.436;24.778;2022-10-18T04:59:52;101169.97;;;8.70;100.00
40908;BME280;51055;59.436;24.778;2022-10-18T05:02:20;101190.84;;;8.75;100.00
40908;BME280;51055;59.436;24.778;2022-10-18T05:04:47;101205.13;;;8.72;100.00
40908;BME280;51055;59.436;24.778;2022-10-18T05:07:15;101211.06;;;8.76;100.00
40908;BME280;51055;59.436;24.778;2022-10-18T05:09:43;101224.81;;;8.81;100.00
40908;BME280;51055;59.436;24.778;2022-10-18T05:12:11;101217.47;;;8.72;100.00
40908;BME280;51055;59.436;24.778;2022-10-18T05:14:38;101155.16;;;8.68;100.00
40908;BME280;51055;59.436;24.778;2022-10-18T05:17:06;101172.00;;;8.67;100.00
40908;BME280;51055;59.436;24.778;2022-10-18T05:19:34;101133.25;;;8.66;100.00
40908;BME280;51055;59.436;24.778;2022-10-18T05:22:01;101129.09;;;8.62;100.00
40908;BME280;51055;59.436;24.778;2022-10-18T05:24:29;101181.91;;;8.63;100.00
40908;BME280;51055;59.436;24.778;2022-10-18T05:26:57;101199.16;;;8.69;100.00
40908;BME280;51055;59.436;24.778;2022-10-18T05:29:24;101204.19;;;8.73;100.00
40908;BME280;51055;59.436;24.778;2022-10-18T05:31:57;101203.31;;;8.73;100.00
40908;BME280;51055;59.436;24.778;2022-10-18T05:34:24;101213.59;;;8.77;100.00
40908;BME280;51055;59.436;24.778;2022-10-18T05:36:53;101216.63;;;8.71;100.00
40908;BME280;51055;59.436;24.778;2022-10-18T05:39:21;101219.84;;;8.76;100.00
40908;BME280;51055;59.436;24.778;2022-10-18T05:41:48;101213.59;;;8.77;100.00
40908;BME280;51055;59.436;24.778;2022-10-18T05:44:16;101209.25;;;8.76;100.00
40908;BME280;51055;59.436;24.778;2022-10-18T05:46:44;101211.91;;;8.76;100.00
40908;BME280;51055;59.436;24.778;2022-10-18T05:49:12;101219.00;;;8.76;100.00
40908;BME280;51055;59.436;24.778;2022-10-18T05:51:39;101220.41;;;8.67;100.00
40908;BME280;51055;59.436;24.778;2022-10-18T05:54:10;101215.13;;;8.67;100.00
40908;BME280;51055;59.436;24.778;2022-10-18T05:56:38;101212.00;;;8.61;100.00
40908;BME280;51055;59.436;24.778;2022-10-18T05:59:11;101213.03;;;8.72;100.00
40908;BME280;51055;59.436;24.778;2022-10-18T06:01:40;101211.25;;;8.73;100.00
40908;BME280;51055;59.436;24.778;2022-10-18T06:04:08;101217.28;;;8.75;100.00
40908;BME280;51055;59.436;24.778;2022-10-18T06:06:37;101214.75;;;8.73;100.00
40908;BME280;51055;59.436;24.778;2022-10-18T06:09:06;101216.44;;;8.74;100.00
40908;BME280;51055;59.436;24.778;2022-10-18T06:11:34;101223.22;;;8.78;100.00
40908;BME280;51055;59.436;24.778;2022-10-18T06:14:02;101229.78;;;8.73;100.00
40908;BME280;51055;59.436;24.778;2022-10-18T06:16:31;101228.91;;;8.72;100.00
40908;BME280;51055;59.436;24.778;2022-10-18T06:18:59;101228.81;;;8.74;100.00
40908;BME280;51055;59.436;24.778;2022-10-18T06:21:26;101230.88;;;8.83;100.00
40908;BME280;51055;59.436;24.778;2022-10-18T06:23:57;101235.31;;;8.82;100.00
40908;BME280;51055;59.436;24.778;2022-10-18T06:26:26;101235.13;;;8.85;100.00
40908;BME280;51055;59.436;24.778;2022-10-18T06:28:54;101232.47;;;8.85;100.00
40908;BME280;51055;59.436;24.778;2022-10-18T06:31:21;101224.53;;;8.85;100.00
40908;BME280;51055;59.436;24.778;2022-10-18T06:33:49;101228.91;;;8.86;100.00
40908;BME280;51055;59.436;24.778;2022-10-18T06:36:19;101239.28;;;8.89;100.00
40908;BME280;51055;59.436;24.778;2022-10-18T06:38:51;101231.22;;;8.91;100.00
40908;BME280;51055;59.436;24.778;2022-10-18T06:41:19;101224.88;;;8.94;100.00
40908;BME280;51055;59.436;24.778;2022-10-18T06:43:51;101222.22;;;8.94;100.00
40908;BME280;51055;59.436;24.778;2022-10-18T06:46:19;101210.63;;;8.96;100.00
40908;BME280;51055;59.436;24.778;2022-10-18T06:48:47;101229.88;;;8.98;100.00
40908;BME280;51055;59.436;24.778;2022-10-18T06:51:15;101228.75;;;9.02;100.00
40908;BME280;51055;59.436;24.778;2022-10-18T06:53:44;101236.69;;;9.02;100.00
40908;BME280;51055;59.436;24.778;2022-10-18T06:56:32;101234.13;;;9.27;100.00
40908;BME280;51055;59.436;24.778;2022-10-18T06:59:00;101233.38;;;9.25;100.00
40908;BME280;51055;59.436;24.778;2022-10-18T07:01:27;101231.28;;;9.30;100.00
40908;BME280;51055;59.436;24.778;2022-10-18T07:03:56;101240.66;;;9.49;100.00
40908;BME280;51055;59.436;24.778;2022-10-18T07:06:24;101242.41;;;9.75;100.00
40908;BME280;51055;59.436;24.778;2022-10-18T07:08:52;101239.31;;;9.68;100.00
40908;BME280;51055;59.436;24.778;2022-10-18T07:11:23;101245.63;;;9.53;100.00
40908;BME280;51055;59.436;24.778;2022-10-18T07:13:53;101237.91;;;9.50;100.00
40908;BME280;51055;59.436;24.778;2022-10-18T07:16:21;101231.94;;;9.47;100.00
40908;BME280;51055;59.436;24.778;2022-10-18T07:18:50;101239.03;;;9.46;100.00
40908;BME280;51055;59.436;24.778;2022-10-18T07:21:20;101246.97;;;9.46;100.00
40908;BME280;51055;59.436;24.778;2022-10-18T07:23:49;101254.47;;;9.66;100.00
40908;BME280;51055;59.436;24.778;2022-10-18T07:26:22;101246.75;;;9.88;100.00
40908;BME280;51055;59.436;24.778;2022-10-18T07:28:53;101246.31;;;9.82;98.94
40908;BME280;51055;59.436;24.778;2022-10-18T07:31:22;101259.34;;;9.72;98.01
40908;BME280;51055;59.436;24.778;2022-10-18T07:33:50;101257.03;;;9.80;98.79
40908;BME280;51055;59.436;24.778;2022-10-18T07:36:19;101265.50;;;9.85;98.69
40908;BME280;51055;59.436;24.778;2022-10-18T07:38:50;101268.06;;;9.87;98.87
40908;BME280;51055;59.436;24.778;2022-10-18T07:41:18;101263.94;;;9.95;98.92
40908;BME280;51055;59.436;24.778;2022-10-18T07:43:48;101262.25;;;10.07;98.36
40908;BME280;51055;59.436;24.778;2022-10-18T07:46:19;101258.41;;;9.99;98.02
40908;BME280;51055;59.436;24.778;2022-10-18T07:48:47;101261.41;;;9.94;98.83
40908;BME280;51055;59.436;24.778;2022-10-18T07:51:16;101256.84;;;9.96;98.98
40908;BME280;51055;59.436;24.778;2022-10-18T07:53:44;101249.56;;;10.25;99.93
40908;BME280;51055;59.436;24.778;2022-10-18T07:56:14;101256.16;;;10.81;97.90
40908;BME280;51055;59.436;24.778;2022-10-18T07:58:43;101249.41;;;11.24;96.33
40908;BME280;51055;59.436;24.778;2022-10-18T08:01:12;101247.59;;;11.01;91.91
40908;BME280;51055;59.436;24.778;2022-10-18T08:03:41;101252.59;;;10.69;92.09
40908;BME280;51055;59.436;24.778;2022-10-18T08:06:11;101258.03;;;10.42;93.64
40908;BME280;51055;59.436;24.778;2022-10-18T08:08:39;101261.94;;;10.24;94.73
40908;BME280;51055;59.436;24.778;2022-10-18T08:11:14;101270.53;;;10.15;95.87
40908;BME280;51055;59.436;24.778;2022-10-18T08:13:42;101265.56;;;10.11;96.73
40908;BME280;51055;59.436;24.778;2022-10-18T08:16:13;101272.66;;;10.10;96.54
40908;BME280;51055;59.436;24.778;2022-10-18T08:18:41;101270.47;;;10.17;96.71
40908;BME280;51055;59.436;24.778;2022-10-18T08:21:10;101273.31;;;10.14;97.26
40908;BME280;51055;59.436;24.778;2022-10-18T08:23:39;101274.31;;;10.11;96.98
40908;BME280;51055;59.436;24.778;2022-10-18T08:26:09;101279.63;;;10.11;97.51
40908;BME280;51055;59.436;24.778;2022-10-18T08:28:38;101272.53;;;10.12;97.75
40908;BME280;51055;59.436;24.778;2022-10-18T08:31:08;101282.19;;;10.13;97.75
40908;BME280;51055;59.436;24.778;2022-10-18T08:33:36;101282.84;;;10.16;98.10
40908;BME280;51055;59.436;24.778;2022-10-18T08:36:07;101288.88;;;10.18;97.69
40908;BME280;51055;59.436;24.778;2022-10-18T08:38:36;101293.72;;;9.99;97.85
40908;BME280;51055;59.436;24.778;2022-10-18T08:44:28;101281.63;;;9.95;99.44
40908;BME280;51055;59.436;24.778;2022-10-18T08:47:04;101274.75;;;9.92;100.00
40908;BME280;51055;59.436;24.778;2022-10-18T08:49:51;101280.97;;;9.91;100.00
40908;BME280;51055;59.436;24.778;2022-10-18T08:52:34;101275.25;;;9.85;100.00
40908;BME280;51055;59.436;24.778;2022-10-18T08:57:45;101294.44;;;9.88;100.00
40908;BME280;51055;59.436;24.778;2022-10-18T09:00:18;101288.19;;;9.89;100.00
40908;BME280;51055;59.436;24.778;2022-10-18T09:03:02;101284.59;;;9.90;100.00
40908;BME280;51055;59.436;24.778;2022-10-18T09:05:54;101289.78;;;9.92;100.00
40908;BME280;51055;59.436;24.778;2022-10-18T09:08:37;101296.06;;;9.91;100.00
40908;BME280;51055;59.436;24.778;2022-10-18T09:22:13;101285.19;;;10.21;100.00
40908;BME280;51055;59.436;24.778;2022-10-18T09:24:57;101295.16;;;10.17;100.00
40908;BME280;51055;59.436;24.778;2022-10-18T09:27:54;101302.06;;;10.20;99.89
40908;BME280;51055;59.436;24.778;2022-10-18T09:33:19;101303.00;;;10.19;99.64
40908;BME280;51055;59.436;24.778;2022-10-18T09:36:07;101300.69;;;10.14;98.36
40908;BME280;51055;59.436;24.778;2022-10-18T09:38:44;101314.41;;;10.07;98.49
40908;BME280;51055;59.436;24.778;2022-10-18T09:41:19;101303.81;;;10.07;99.94
40908;BME280;51055;59.436;24.778;2022-10-18T09:44:02;101305.84;;;10.16;100.00
40908;BME280;51055;59.436;24.778;2022-10-18T09:46:39;101301.50;;;10.15;99.23
40908;BME280;51055;59.436;24.778;2022-10-18T09:49:34;101302.97;;;10.06;99.13
40908;BME280;51055;59.436;24.778;2022-10-18T09:52:07;101303.03;;;10.05;98.85
40908;BME280;51055;59.436;24.778;2022-10-18T09:54:55;101310.69;;;9.97;98.57
40908;BME280;51055;59.436;24.778;2022-10-18T09:57:40;101304.94;;;9.90;99.09
40908;BME280;51055;59.436;24.778;2022-10-18T10:00:21;101301.66;;;9.99;99.80
40908;BME280;51055;59.436;24.778;2022-10-18T10:02:51;101297.31;;;9.98;100.00
40908;BME280;51055;59.436;24.778;2022-10-18T10:05:18;101306.13;;;9.99;99.50
40908;BME280;51055;59.436;24.778;2022-10-18T10:07:47;101307.81;;;10.00;100.00
40908;BME280;51055;59.436;24.778;2022-10-18T10:12:46;101295.50;;;9.99;100.00
40908;BME280;51055;59.436;24.778;2022-10-18T10:15:20;101289.63;;;10.08;100.00
40908;BME280;51055;59.436;24.778;2022-10-18T10:18:16;101279.19;;;10.05;100.00
40908;BME280;51055;59.436;24.778;2022-10-18T10:20:53;101278.88;;;10.09;100.00
40908;BME280;51055;59.436;24.778;2022-10-18T10:26:26;101269.69;;;10.15;100.00
40908;BME280;51055;59.436;24.778;2022-10-18T10:28:55;101262.91;;;10.11;100.00
40908;BME280;51055;59.436;24.778;2022-10-18T10:34:03;101265.63;;;10.09;100.00
40908;BME280;51055;59.436;24.778;2022-10-18T10:36:32;101267.91;;;10.15;100.00
40908;BME280;51055;59.436;24.778;2022-10-18T10:41:30;101270.31;;;10.06;100.00
40908;BME280;51055;59.436;24.778;2022-10-18T10:44:11;101273.50;;;10.11;100.00
40908;BME280;51055;59.436;24.778;2022-10-18T10:46:40;101274.78;;;10.18;100.00
40908;BME280;51055;59.436;24.778;2022-10-18T10:49:17;101264.47;;;10.13;100.00
40908;BME280;51055;59.436;24.778;2022-10-18T10:52:06;101269.03;;;10.11;100.00
40908;BME280;51055;59.436;24.778;2022-10-18T10:54:36;101278.88;;;10.09;100.00
40908;BME280;51055;59.436;24.778;2022-10-18T10:59:44;101272.09;;;10.05;100.00
40908;BME280;51055;59.436;24.778;2022-10-18T11:04:45;101270.81;;;9.98;100.00
40908;BME280;51055;59.436;24.778;2022-10-18T11:07:22;101273.59;;;9.97;100.00
40908;BME280;51055;59.436;24.778;2022-10-18T11:10:00;101275.28;;;9.98;100.00
40908;BME280;51055;59.436;24.778;2022-10-18T11:12:37;101279.94;;;9.94;100.00
40908;BME280;51055;59.436;24.778;2022-10-18T11:15:13;101275.28;;;9.98;100.00
40908;BME280;51055;59.436;24.778;2022-10-18T11:18:03;101272.53;;;9.99;100.00
40908;BME280;51055;59.436;24.778;2022-10-18T11:20:39;101271.56;;;10.00;100.00
40908;BME280;51055;59.436;24.778;2022-10-18T11:23:12;101274.75;;;10.05;100.00
40908;BME280;51055;59.436;24.778;2022-10-18T11:28:21;101276.16;;;10.11;100.00
40908;BME280;51055;59.436;24.778;2022-10-18T11:33:30;101275.28;;;10.10;100.00
40908;BME280;51055;59.436;24.778;2022-10-18T11:40:03;101283.25;;;9.98;100.00
40908;BME280;51055;59.436;24.778;2022-10-18T12:05:30;101272.16;;;10.30;100.00
40908;BME280;51055;59.436;24.778;2022-10-18T12:08:07;101274.81;;;10.30;100.00
40908;BME280;51055;59.436;24.778;2022-10-18T12:10:36;101277.13;;;10.35;100.00
40908;BME280;51055;59.436;24.778;2022-10-18T12:16:05;101264.28;;;10.29;100.00
40908;BME280;51055;59.436;24.778;2022-10-18T12:18:35;101266.66;;;10.21;100.00
40908;BME280;51055;59.436;24.778;2022-10-18T12:21:05;101266.81;;;10.18;100.00
40908;BME280;51055;59.436;24.778;2022-10-18T12:24:05;101266.50;;;10.10;100.00
40908;BME280;51055;59.436;24.778;2022-10-18T12:26:34;101269.44;;;10.05;100.00
40908;BME280;51055;59.436;24.778;2022-10-18T12:32:07;101272.66;;;10.10;100.00
40908;BME280;51055;59.436;24.778;2022-10-18T12:34:45;101269.69;;;10.15;100.00
40908;BME280;51055;59.436;24.778;2022-10-18T12:40:07;101274.47;;;10.22;100.00
40908;BME280;51055;59.436;24.778;2022-10-18T12:42:45;101279.47;;;10.27;100.00
40908;BME280;51055;59.436;24.778;2022-10-18T12:45:25;101266.00;;;10.30;99.92
40908;BME280;51055;59.436;24.778;2022-10-18T12:48:06;101268.75;;;10.28;99.65
40908;BME280;51055;59.436;24.778;2022-10-18T12:50:39;101277.69;;;10.27;99.59
40908;BME280;51055;59.436;24.778;2022-10-18T12:55:41;101271.72;;;10.24;98.75
40908;BME280;51055;59.436;24.778;2022-10-18T13:16:19;101259.16;;;9.88;99.48
40908;BME280;51055;59.436;24.778;2022-10-18T13:18:54;101252.25;;;9.85;99.53
40908;BME280;51055;59.436;24.778;2022-10-18T13:21:39;101252.59;;;9.81;99.46
40908;BME280;51055;59.436;24.778;2022-10-18T13:24:38;101243.16;;;9.77;99.69
40908;BME280;51055;59.436;24.778;2022-10-18T13:41:15;101255.66;;;9.75;100.00
40908;BME280;51055;59.436;24.778;2022-10-18T13:54:58;101261.97;;;9.60;100.00
40908;BME280;51055;59.436;24.778;2022-10-18T14:04:23;101254.34;;;9.55;100.00
40908;BME280;51055;59.436;24.778;2022-10-18T14:06:58;101259.31;;;9.60;100.00
40908;BME280;51055;59.436;24.778;2022-10-18T14:09:42;101251.16;;;9.63;100.00
40908;BME280;51055;59.436;24.778;2022-10-18T14:17:38;101255.59;;;9.62;100.00
40908;BME280;51055;59.436;24.778;2022-10-18T14:20:23;101254.78;;;9.62;100.00
40908;BME280;51055;59.436;24.778;2022-10-18T14:25:36;101253.16;;;9.59;100.00
40908;BME280;51055;59.436;24.778;2022-10-18T14:28:18;101245.34;;;9.58;100.00
40908;BME280;51055;59.436;24.778;2022-10-18T14:31:12;101242.91;;;9.55;100.00
40908;BME280;51055;59.436;24.778;2022-10-18T14:33:50;101244.69;;;9.54;100.00
40908;BME280;51055;59.436;24.778;2022-10-18T14:36:26;101242.13;;;9.53;100.00
40908;BME280;51055;59.436;24.778;2022-10-18T14:39:01;101240.66;;;9.49;100.00
40908;BME280;51055;59.436;24.778;2022-10-18T14:41:31;101229.66;;;9.55;100.00
40908;BME280;51055;59.436;24.778;2022-10-18T14:49:12;101246.97;;;9.46;100.00
40908;BME280;51055;59.436;24.778;2022-10-18T14:51:42;101245.50;;;9.42;100.00
40908;BME280;51055;59.436;24.778;2022-10-18T14:54:18;101246.66;;;9.38;100.00
40908;BME280;51055;59.436;24.778;2022-10-18T14:56:50;101253.47;;;9.42;100.00
40908;BME280;51055;59.436;24.778;2022-10-18T14:59:21;101248.41;;;9.52;100.00
40908;BME280;51055;59.436;24.778;2022-10-18T15:01:57;101249.78;;;9.57;100.00
40908;BME280;51055;59.436;24.778;2022-10-18T15:04:27;101249.66;;;9.59;100.00
40908;BME280;51055;59.436;24.778;2022-10-18T15:07:13;101247.44;;;9.53;100.00
40908;BME280;51055;59.436;24.778;2022-10-18T15:09:54;101240.44;;;9.52;100.00
40908;BME280;51055;59.436;24.778;2022-10-18T15:12:23;101247.53;;;9.51;100.00
40908;BME280;51055;59.436;24.778;2022-10-18T15:14:51;101251.13;;;9.50;100.00
40908;BME280;51055;59.436;24.778;2022-10-18T15:17:26;101248.69;;;9.47;100.00
40908;BME280;51055;59.436;24.778;2022-10-18T15:20:00;101250.59;;;9.45;100.00
40908;BME280;51055;59.436;24.778;2022-10-18T15:22:32;101245.19;;;9.47;100.00
40908;BME280;51055;59.436;24.778;2022-10-18T15:25:16;101246.03;;;9.47;100.00
40908;BME280;51055;59.436;24.778;2022-10-18T15:27:49;101236.19;;;9.49;100.00
40908;BME280;51055;59.436;24.778;2022-10-18T15:30:23;101234.59;;;9.47;100.00
40908;BME280;51055;59.436;24.778;2022-10-18T15:32:54;101229.84;;;9.39;100.00
40908;BME280;51055;59.436;24.778;2022-10-18T15:35:26;101229.06;;;9.37;100.00
40908;BME280;51055;59.436;24.778;2022-10-18T15:37:56;101227.47;;;9.34;100.00
40908;BME280;51055;59.436;24.778;2022-10-18T15:40:31;101227.69;;;9.31;100.00
40908;BME280;51055;59.436;24.778;2022-10-18T15:43:05;101222.69;;;9.27;100.00
40908;BME280;51055;59.436;24.778;2022-10-18T15:45:51;101221.38;;;9.20;100.00
40908;BME280;51055;59.436;24.778;2022-10-18T15:48:37;101231.88;;;9.21;100.00
40908;BME280;51055;59.436;24.778;2022-10-18T15:51:08;101229.97;;;9.23;100.00
40908;BME280;51055;59.436;24.778;2022-10-18T15:56:37;101234.69;;;9.32;100.00
40908;BME280;51055;59.436;24.778;2022-10-18T15:59:22;101236.16;;;9.36;100.00